createdAt,value
2022-08-04T00:00:25.803Z,20.03
2022-08-04T00:01:25.859Z,20.01
2022-08-04T00:02:25.846Z,20.06
2022-08-04T00:03:25.867Z,20.01
2022-08-04T00:04:25.884Z,20.03
2022-08-04T00:05:25.905Z,20.01
2022-08-04T00:06:25.927Z,20.03
2022-08-04T00:07:45.045Z,20.01
2022-08-04T00:08:25.967Z,20.06
2022-08-04T00:09:25.989Z,19.99
2022-08-04T00:10:26.010Z,20.02
2022-08-04T00:11:26.037Z,19.99
2022-08-04T00:12:29.332Z,20.08
2022-08-04T00:13:26.076Z,20.03
2022-08-04T00:14:26.087Z,20.06
2022-08-04T00:15:26.111Z,20.02
2022-08-04T00:16:26.130Z,20.01
2022-08-04T00:17:26.154Z,20.02
2022-08-04T00:18:26.177Z,19.98
2022-08-04T00:19:26.196Z,19.96
2022-08-04T00:20:26.213Z,19.92
2022-08-04T00:21:26.239Z,20.01
2022-08-04T00:22:26.255Z,19.95
2022-08-04T00:23:26.326Z,19.92
2022-08-04T00:24:26.309Z,20.01
2022-08-04T00:25:26.322Z,19.95
2022-08-04T00:26:26.389Z,19.94
2022-08-04T00:27:26.362Z,19.98
2022-08-04T00:28:26.379Z,19.86
2022-08-04T00:29:26.400Z,19.94
2022-08-04T00:30:26.453Z,19.91
2022-08-04T00:31:54.079Z,19.94
2022-08-04T00:32:34.224Z,19.87
2022-08-04T00:33:26.484Z,19.84
2022-08-04T00:34:26.501Z,19.94
2022-08-04T00:35:26.519Z,19.87
2022-08-04T00:36:26.546Z,19.86
2022-08-04T00:37:26.567Z,19.83
2022-08-04T00:38:26.590Z,19.77
2022-08-04T00:39:26.688Z,19.87
2022-08-04T00:40:26.625Z,19.88
2022-08-04T00:41:26.649Z,19.92
2022-08-04T00:42:26.666Z,19.77
2022-08-04T00:43:26.685Z,19.81
2022-08-04T00:44:26.706Z,19.84
2022-08-04T00:45:26.729Z,19.74
2022-08-04T00:46:26.748Z,19.78
2022-08-04T00:47:26.771Z,19.84
2022-08-04T00:48:26.838Z,19.74
2022-08-04T00:49:26.812Z,19.71
2022-08-04T00:50:26.829Z,19.74
2022-08-04T00:51:26.850Z,19.78
2022-08-04T00:52:32.536Z,19.84
2022-08-04T00:53:26.890Z,19.77
2022-08-04T00:54:26.910Z,19.74
2022-08-04T00:55:26.933Z,19.81
2022-08-04T00:56:26.956Z,19.77
2022-08-04T00:57:34.288Z,19.74
2022-08-04T00:58:26.989Z,19.80
2022-08-04T00:59:27.010Z,19.76
2022-08-04T01:00:27.034Z,19.77
2022-08-04T01:01:27.158Z,19.78
2022-08-04T01:02:27.076Z,19.69
2022-08-04T01:03:27.095Z,19.73
2022-08-04T01:04:27.116Z,19.77
2022-08-04T01:05:27.133Z,19.80
2022-08-04T01:06:27.254Z,19.77
2022-08-04T01:07:27.179Z,19.62
2022-08-04T01:08:27.196Z,19.73
2022-08-04T01:09:27.219Z,19.65
2022-08-04T01:10:27.234Z,19.58
2022-08-04T01:11:27.273Z,19.55
2022-08-04T01:12:27.278Z,19.55
2022-08-04T01:13:27.300Z,19.65
2022-08-04T01:14:27.322Z,19.51
2022-08-04T01:15:27.339Z,19.58
2022-08-04T01:16:27.360Z,19.55
2022-08-04T01:17:27.378Z,19.61
2022-08-04T01:18:27.403Z,19.56
2022-08-04T01:19:27.420Z,19.56
2022-08-04T01:20:27.438Z,19.50
2022-08-04T01:21:27.456Z,19.56
2022-08-04T01:22:27.482Z,19.48
2022-08-04T01:23:27.498Z,19.55
2022-08-04T01:24:27.516Z,19.55
2022-08-04T01:25:27.537Z,19.50
2022-08-04T01:26:43.610Z,19.44
2022-08-04T01:27:27.580Z,19.47
2022-08-04T01:28:27.605Z,19.48
2022-08-04T01:29:30.501Z,19.47
2022-08-04T01:30:27.642Z,19.40
2022-08-04T01:31:27.659Z,19.48
2022-08-04T01:32:27.682Z,19.37
2022-08-04T01:33:27.702Z,19.44
2022-08-04T01:34:27.719Z,19.43
2022-08-04T01:35:46.869Z,19.40
2022-08-04T01:36:27.940Z,19.39
2022-08-04T01:37:27.780Z,19.41
2022-08-04T01:38:27.820Z,19.32
2022-08-04T01:39:27.865Z,19.36
2022-08-04T01:40:27.846Z,19.43
2022-08-04T01:41:32.642Z,19.41
2022-08-04T01:42:32.064Z,19.37
2022-08-04T01:43:27.908Z,19.44
2022-08-04T01:44:27.923Z,19.32
2022-08-04T01:45:27.955Z,19.36
2022-08-04T01:46:27.961Z,19.33
2022-08-04T01:47:27.984Z,19.25
2022-08-04T01:48:28.101Z,19.21
2022-08-04T01:49:28.028Z,19.21
2022-08-04T01:50:28.071Z,19.19
2022-08-04T01:51:28.064Z,19.31
2022-08-04T01:52:28.080Z,19.31
2022-08-04T01:53:28.101Z,19.21
2022-08-04T01:54:28.124Z,19.19
2022-08-04T01:55:52.107Z,19.21
2022-08-04T01:56:28.161Z,19.22
2022-08-04T01:57:38.371Z,19.28
2022-08-04T01:58:28.206Z,19.28
2022-08-04T01:59:28.221Z,19.23
2022-08-04T02:00:28.269Z,19.23
2022-08-04T02:01:28.349Z,19.31
2022-08-04T02:02:28.432Z,19.22
2022-08-04T02:04:18.516Z,19.22
2022-08-04T02:04:28.331Z,19.23
2022-08-04T02:06:03.445Z,19.26
2022-08-04T02:06:28.365Z,19.28
2022-08-04T02:07:28.383Z,19.25
2022-08-04T02:08:28.401Z,19.13
2022-08-04T02:09:28.424Z,19.10
2022-08-04T02:10:28.543Z,19.18
2022-08-04T02:11:28.463Z,19.11
2022-08-04T02:12:28.480Z,19.06
2022-08-04T02:13:28.503Z,19.04
2022-08-04T02:14:28.521Z,19.02
2022-08-04T02:15:28.548Z,18.87
2022-08-04T02:16:28.570Z,18.99
2022-08-04T02:17:28.585Z,18.94
2022-08-04T02:18:28.599Z,18.91
2022-08-04T02:19:28.623Z,18.94
2022-08-04T02:20:28.638Z,18.85
2022-08-04T02:21:28.668Z,18.87
2022-08-04T02:22:28.679Z,18.87
2022-08-04T02:23:28.707Z,18.84
2022-08-04T02:24:28.715Z,18.88
2022-08-04T02:25:28.739Z,18.88
2022-08-04T02:26:28.762Z,18.81
2022-08-04T02:27:28.783Z,18.82
2022-08-04T02:28:28.799Z,18.81
2022-08-04T02:29:32.000Z,18.76
2022-08-04T02:30:28.837Z,18.81
2022-08-04T02:31:29.076Z,18.80
2022-08-04T02:32:28.880Z,18.80
2022-08-04T02:33:28.895Z,18.81
2022-08-04T02:34:28.913Z,18.80
2022-08-04T02:35:28.939Z,18.73
2022-08-04T02:36:28.955Z,18.76
2022-08-04T02:37:28.973Z,18.85
2022-08-04T02:38:28.991Z,18.88
2022-08-04T02:39:29.067Z,18.82
2022-08-04T02:40:29.033Z,18.85
2022-08-04T02:41:29.049Z,18.84
2022-08-04T02:42:29.077Z,18.88
2022-08-04T02:43:51.546Z,18.88
2022-08-04T02:44:29.110Z,18.84
2022-08-04T02:45:29.129Z,18.87
2022-08-04T02:46:29.148Z,18.80
2022-08-04T02:48:23.575Z,18.85
2022-08-04T02:48:31.596Z,18.73
2022-08-04T02:49:29.208Z,18.82
2022-08-04T02:50:29.474Z,18.76
2022-08-04T02:51:29.249Z,18.73
2022-08-04T02:52:29.268Z,18.73
2022-08-04T02:53:29.288Z,18.82
2022-08-04T02:54:32.476Z,18.81
2022-08-04T02:55:29.331Z,18.80
2022-08-04T02:56:29.346Z,18.75
2022-08-04T02:57:29.365Z,18.76
2022-08-04T02:58:29.380Z,18.82
2022-08-04T02:59:29.404Z,18.81
2022-08-04T03:00:29.431Z,18.80
2022-08-04T03:01:29.522Z,18.72
2022-08-04T03:02:29.458Z,18.80
2022-08-04T03:03:29.479Z,18.81
2022-08-04T03:04:29.503Z,18.84
2022-08-04T03:05:29.517Z,18.81
2022-08-04T03:06:29.533Z,18.80
2022-08-04T03:07:29.555Z,18.81
2022-08-04T03:08:29.580Z,18.88
2022-08-04T03:09:29.596Z,18.85
2022-08-04T03:10:29.625Z,18.88
2022-08-04T03:11:29.636Z,18.82
2022-08-04T03:12:29.660Z,18.90
2022-08-04T03:13:29.672Z,18.84
2022-08-04T03:14:29.696Z,18.82
2022-08-04T03:15:29.713Z,18.84
2022-08-04T03:16:30.236Z,18.81
2022-08-04T03:17:29.754Z,18.82
2022-08-04T03:18:29.767Z,18.73
2022-08-04T03:19:29.796Z,18.80
2022-08-04T03:20:29.805Z,18.78
2022-08-04T03:21:29.828Z,18.80
2022-08-04T03:22:29.854Z,18.81
2022-08-04T03:23:29.866Z,18.78
2022-08-04T03:24:29.935Z,18.84
2022-08-04T03:25:29.906Z,18.81
2022-08-04T03:26:29.925Z,18.82
2022-08-04T03:27:29.947Z,18.76
2022-08-04T03:28:29.965Z,18.82
2022-08-04T03:29:36.795Z,18.84
2022-08-04T03:30:29.999Z,18.81
2022-08-04T03:31:30.025Z,18.78
2022-08-04T03:32:30.043Z,18.82
2022-08-04T03:33:30.062Z,18.81
2022-08-04T03:34:30.090Z,18.76
2022-08-04T03:35:30.102Z,18.76
2022-08-04T03:36:31.739Z,18.84
2022-08-04T03:37:30.140Z,18.80
2022-08-04T03:38:30.157Z,18.81
2022-08-04T03:39:30.243Z,18.81
2022-08-04T03:40:30.198Z,18.84
2022-08-04T03:41:55.130Z,18.82
2022-08-04T03:42:30.237Z,18.84
2022-08-04T03:43:57.217Z,18.90
2022-08-04T03:44:30.276Z,18.81
2022-08-04T03:45:30.294Z,18.82
2022-08-04T03:46:30.318Z,18.84
2022-08-04T03:47:30.336Z,18.76
2022-08-04T03:48:30.356Z,18.85
2022-08-04T03:49:30.376Z,18.78
2022-08-04T03:50:30.392Z,18.82
2022-08-04T03:51:35.975Z,18.85
2022-08-04T03:52:30.435Z,18.76
2022-08-04T03:53:30.455Z,18.88
2022-08-04T03:54:30.469Z,18.88
2022-08-04T03:55:30.490Z,18.85
2022-08-04T03:56:30.610Z,18.88
2022-08-04T03:57:30.528Z,18.88
2022-08-04T03:58:33.712Z,18.91
2022-08-04T03:59:30.571Z,18.88
2022-08-04T04:00:30.590Z,18.90
2022-08-04T04:01:30.609Z,18.81
2022-08-04T04:02:30.749Z,18.84
2022-08-04T04:03:30.649Z,18.84
2022-08-04T04:04:30.668Z,18.80
2022-08-04T04:05:32.944Z,18.82
2022-08-04T04:06:30.702Z,18.75
2022-08-04T04:07:36.375Z,18.82
2022-08-04T04:08:30.743Z,18.70
2022-08-04T04:09:33.989Z,18.73
2022-08-04T04:10:30.782Z,18.75
2022-08-04T04:11:30.806Z,18.75
2022-08-04T04:12:30.821Z,18.85
2022-08-04T04:13:30.840Z,18.81
2022-08-04T04:14:30.855Z,18.87
2022-08-04T04:15:30.880Z,18.90
2022-08-04T04:16:30.902Z,18.87
2022-08-04T04:17:30.925Z,18.82
2022-08-04T04:18:30.936Z,18.84
2022-08-04T04:19:30.957Z,18.75
2022-08-04T04:20:30.979Z,18.81
2022-08-04T04:21:31.089Z,18.84
2022-08-04T04:22:34.290Z,18.80
2022-08-04T04:23:31.032Z,18.73
2022-08-04T04:24:33.741Z,18.81
2022-08-04T04:25:31.073Z,18.72
2022-08-04T04:26:31.090Z,18.82
2022-08-04T04:27:31.110Z,18.80
2022-08-04T04:28:44.802Z,18.80
2022-08-04T04:29:31.153Z,18.76
2022-08-04T04:30:31.171Z,18.75
2022-08-04T04:31:31.190Z,18.73
2022-08-04T04:32:31.205Z,18.73
2022-08-04T04:33:31.227Z,18.70
2022-08-04T04:34:31.247Z,18.67
2022-08-04T04:35:31.265Z,18.67
2022-08-04T04:36:31.284Z,18.70
2022-08-04T04:37:31.306Z,18.78
2022-08-04T04:38:31.327Z,18.73
2022-08-04T04:39:31.428Z,18.69
2022-08-04T04:40:31.358Z,18.73
2022-08-04T04:41:31.392Z,18.80
2022-08-04T04:42:31.406Z,18.82
2022-08-04T04:43:51.134Z,18.80
2022-08-04T04:44:31.436Z,18.80
2022-08-04T04:45:31.457Z,18.75
2022-08-04T04:46:31.478Z,18.82
2022-08-04T04:47:43.102Z,18.80
2022-08-04T04:48:31.512Z,18.80
2022-08-04T04:49:31.539Z,18.75
2022-08-04T04:50:36.451Z,18.82
2022-08-04T04:51:31.571Z,18.82
2022-08-04T04:52:31.590Z,18.75
2022-08-04T04:53:31.613Z,18.72
2022-08-04T04:54:31.630Z,18.85
2022-08-04T04:55:31.650Z,18.80
2022-08-04T04:56:31.670Z,18.78
2022-08-04T04:57:54.770Z,18.73
2022-08-04T04:58:31.706Z,18.81
2022-08-04T04:59:31.731Z,18.80
2022-08-04T05:00:31.749Z,18.70
2022-08-04T05:01:31.766Z,18.73
2022-08-04T05:02:31.803Z,18.73
2022-08-04T05:03:31.806Z,18.73
2022-08-04T05:04:31.828Z,18.84
2022-08-04T05:05:31.900Z,18.72
2022-08-04T05:06:31.878Z,18.67
2022-08-04T05:07:31.882Z,18.63
2022-08-04T05:08:45.424Z,18.65
2022-08-04T05:09:31.921Z,18.62
2022-08-04T05:10:31.941Z,18.67
2022-08-04T05:11:31.961Z,18.69
2022-08-04T05:14:30.882Z,18.70
2022-08-04T05:14:37.121Z,18.66
2022-08-04T05:14:41.106Z,18.65
2022-08-04T05:15:32.035Z,18.72
2022-08-04T05:16:32.060Z,18.66
2022-08-04T05:17:32.078Z,18.73
2022-08-04T05:18:32.098Z,18.75
2022-08-04T05:19:32.112Z,18.69
2022-08-04T05:20:32.137Z,18.65
2022-08-04T05:21:32.153Z,18.63
2022-08-04T05:22:32.178Z,18.63
2022-08-04T05:23:32.192Z,18.63
2022-08-04T05:24:35.042Z,18.54
2022-08-04T05:25:32.234Z,18.60
2022-08-04T05:26:32.251Z,18.55
2022-08-04T05:27:34.182Z,18.55
2022-08-04T05:28:32.286Z,18.55
2022-08-04T05:29:32.306Z,18.58
2022-08-04T05:30:32.324Z,18.52
2022-08-04T05:31:32.342Z,18.62
2022-08-04T05:32:32.368Z,18.54
2022-08-04T05:33:32.385Z,18.55
2022-08-04T05:34:32.403Z,18.60
2022-08-04T05:35:49.834Z,18.60
2022-08-04T05:36:41.104Z,18.55
2022-08-04T05:37:32.470Z,18.55
2022-08-04T05:38:32.479Z,18.60
2022-08-04T05:39:34.583Z,18.52
2022-08-04T05:40:32.522Z,18.62
2022-08-04T05:41:44.988Z,18.60
2022-08-04T05:42:32.551Z,18.50
2022-08-04T05:43:32.572Z,18.54
2022-08-04T05:44:32.608Z,18.54
2022-08-04T05:45:39.143Z,18.51
2022-08-04T05:46:32.629Z,18.57
2022-08-04T05:47:32.654Z,18.57
2022-08-04T05:48:32.670Z,18.65
2022-08-04T05:49:32.690Z,18.55
2022-08-04T05:50:33.687Z,18.63
2022-08-04T05:51:32.743Z,18.63
2022-08-04T05:52:32.769Z,18.60
2022-08-04T05:53:32.765Z,18.66
2022-08-04T05:54:32.782Z,18.62
2022-08-04T05:55:56.682Z,18.65
2022-08-04T05:56:32.826Z,18.69
2022-08-04T05:57:32.846Z,18.67
2022-08-04T05:58:32.862Z,18.65
2022-08-04T05:59:32.880Z,18.65
2022-08-04T06:00:41.312Z,18.67
2022-08-04T06:01:33.142Z,18.72
2022-08-04T06:02:32.949Z,18.76
2022-08-04T06:03:32.965Z,18.75
2022-08-04T06:04:32.984Z,18.82
2022-08-04T06:05:32.997Z,18.84
2022-08-04T06:06:33.017Z,18.87
2022-08-04T06:07:33.031Z,18.94
2022-08-04T06:08:33.055Z,18.92
2022-08-04T06:09:33.082Z,18.99
2022-08-04T06:10:33.092Z,19.02
2022-08-04T06:11:33.209Z,19.08
2022-08-04T06:12:33.131Z,19.10
2022-08-04T06:13:48.056Z,19.04
2022-08-04T06:14:33.168Z,19.11
2022-08-04T06:15:33.193Z,19.19
2022-08-04T06:16:33.209Z,19.21
2022-08-04T06:19:57.535Z,19.22
2022-08-04T06:19:59.591Z,19.19
2022-08-04T06:19:59.980Z,19.19
2022-08-04T06:20:34.756Z,19.23
2022-08-04T06:21:33.303Z,19.31
2022-08-04T06:22:33.321Z,19.31
2022-08-04T06:23:33.354Z,19.39
2022-08-04T06:24:33.362Z,19.46
2022-08-04T06:25:33.379Z,19.41
2022-08-04T06:26:33.398Z,19.36
2022-08-04T06:27:33.419Z,19.43
2022-08-04T06:28:35.281Z,19.44
2022-08-04T06:29:33.465Z,19.48
2022-08-04T06:30:33.475Z,19.56
2022-08-04T06:32:28.051Z,19.48
2022-08-04T06:32:35.665Z,19.51
2022-08-04T06:33:33.540Z,19.56
2022-08-04T06:34:33.558Z,19.62
2022-08-04T06:35:33.580Z,19.63
2022-08-04T06:36:33.598Z,19.63
2022-08-04T06:37:42.718Z,19.62
2022-08-04T06:38:33.642Z,19.65
2022-08-04T06:39:33.766Z,19.68
2022-08-04T06:40:34.540Z,19.76
2022-08-04T06:41:33.692Z,19.77
2022-08-04T06:42:33.714Z,19.77
2022-08-04T06:43:33.728Z,19.76
2022-08-04T06:44:33.751Z,19.78
2022-08-04T06:45:33.773Z,19.80
2022-08-04T06:46:33.789Z,19.80
2022-08-04T06:47:33.810Z,19.81
2022-08-04T06:48:33.979Z,19.81
2022-08-04T06:51:23.353Z,19.95
2022-08-04T06:51:24.917Z,19.96
2022-08-04T06:51:39.111Z,20.01
2022-08-04T06:52:33.909Z,20.10
2022-08-04T06:53:33.929Z,20.10
2022-08-04T06:54:33.952Z,20.21
2022-08-04T06:55:33.966Z,20.35
2022-08-04T06:56:33.994Z,20.33
2022-08-04T06:57:34.007Z,20.39
2022-08-04T06:58:34.335Z,20.41
2022-08-04T06:59:34.056Z,20.43
2022-08-04T07:00:34.192Z,20.51
2022-08-04T07:01:34.236Z,20.54
2022-08-04T07:02:34.188Z,20.61
2022-08-04T07:03:34.193Z,20.70
2022-08-04T07:04:34.145Z,20.73
2022-08-04T07:05:34.161Z,20.88
2022-08-04T07:06:34.183Z,20.95
2022-08-04T07:07:36.951Z,20.79
2022-08-04T07:08:34.218Z,20.82
2022-08-04T07:09:34.243Z,20.92
2022-08-04T07:10:34.260Z,20.92
2022-08-04T07:11:39.764Z,20.77
2022-08-04T07:12:34.384Z,20.97
2022-08-04T07:13:34.395Z,21.04
2022-08-04T07:14:34.338Z,20.97
2022-08-04T07:15:34.360Z,21.06
2022-08-04T07:16:34.481Z,21.19
2022-08-04T07:17:34.742Z,21.06
2022-08-04T07:18:34.421Z,21.12
2022-08-04T07:19:34.441Z,21.19
2022-08-04T07:20:36.742Z,21.29
2022-08-04T07:21:34.482Z,21.13
2022-08-04T07:22:34.501Z,21.10
2022-08-04T07:23:34.518Z,21.28
2022-08-04T07:24:34.551Z,21.27
2022-08-04T07:26:00.425Z,21.38
2022-08-04T07:26:34.577Z,21.40
2022-08-04T07:27:48.368Z,21.58
2022-08-04T07:28:34.636Z,21.58
2022-08-04T07:29:34.639Z,21.40
2022-08-04T07:30:34.666Z,21.40
2022-08-04T07:31:36.244Z,21.46
2022-08-04T07:32:34.703Z,21.54
2022-08-04T07:33:34.719Z,21.43
2022-08-04T07:34:34.740Z,21.37
2022-08-04T07:36:09.480Z,21.29
2022-08-04T07:36:49.318Z,21.32
2022-08-04T07:37:39.858Z,21.37
2022-08-04T07:38:37.983Z,21.40
2022-08-04T07:39:47.894Z,21.64
2022-08-04T07:40:34.860Z,21.67
2022-08-04T07:41:35.779Z,21.68
2022-08-04T07:42:34.904Z,21.64
2022-08-04T07:43:34.943Z,21.83
2022-08-04T07:44:34.946Z,21.88
2022-08-04T07:45:34.959Z,21.84
2022-08-04T07:46:35.003Z,21.92
2022-08-04T07:47:34.999Z,22.05
2022-08-04T07:48:35.023Z,22.15
2022-08-04T07:49:54.895Z,22.21
2022-08-04T07:50:35.065Z,22.22
2022-08-04T07:51:35.140Z,22.24
2022-08-04T07:52:39.645Z,22.24
2022-08-04T07:53:54.493Z,22.24
2022-08-04T07:54:35.146Z,22.22
2022-08-04T07:55:35.169Z,22.25
2022-08-04T07:56:35.184Z,22.27
2022-08-04T07:57:41.070Z,22.25
2022-08-04T07:58:35.230Z,22.33
2022-08-04T07:59:35.246Z,22.46
2022-08-04T08:00:35.266Z,22.54
2022-08-04T08:01:35.293Z,22.55
2022-08-04T08:02:35.304Z,22.64
2022-08-04T08:03:35.405Z,22.65
2022-08-04T08:04:35.356Z,22.57
2022-08-04T08:05:35.382Z,22.67
2022-08-04T08:06:39.832Z,22.64
2022-08-04T08:07:35.414Z,22.75
2022-08-04T08:08:35.488Z,22.68
2022-08-04T08:09:35.455Z,22.79
2022-08-04T08:10:35.543Z,22.62
2022-08-04T08:12:36.284Z,22.70
2022-08-04T08:12:51.095Z,22.94
2022-08-04T08:13:35.538Z,22.92
2022-08-04T08:14:35.684Z,22.95
2022-08-04T08:15:35.582Z,22.88
2022-08-04T08:16:35.701Z,22.72
2022-08-04T08:17:59.398Z,22.70
2022-08-04T08:18:35.645Z,22.64
2022-08-04T08:19:35.665Z,22.88
2022-08-04T08:20:35.686Z,23.07
2022-08-04T08:21:35.707Z,23.47
2022-08-04T08:22:35.725Z,23.48
2022-08-04T08:23:35.745Z,22.91
2022-08-04T08:24:35.763Z,23.13
2022-08-04T08:25:35.788Z,23.25
2022-08-04T08:26:35.814Z,23.07
2022-08-04T08:27:35.829Z,22.98
2022-08-04T08:28:35.857Z,23.28
2022-08-04T08:29:35.882Z,23.48
2022-08-04T08:30:35.895Z,23.50
2022-08-04T08:31:58.438Z,23.61
2022-08-04T08:32:35.937Z,23.10
2022-08-04T08:33:35.958Z,23.13
2022-08-04T08:34:35.996Z,23.36
2022-08-04T08:35:39.677Z,23.80
2022-08-04T08:36:36.022Z,24.00
2022-08-04T08:37:41.855Z,24.20
2022-08-04T08:38:36.061Z,24.30
2022-08-04T08:39:36.169Z,24.28
2022-08-04T08:40:41.150Z,24.31
2022-08-04T08:41:36.129Z,24.35
2022-08-04T08:42:36.151Z,24.37
2022-08-04T08:44:04.977Z,24.28
2022-08-04T08:44:37.410Z,24.18
2022-08-04T08:45:36.214Z,24.27
2022-08-04T08:46:48.911Z,24.10
2022-08-04T08:48:04.667Z,24.20
2022-08-04T08:48:36.278Z,23.98
2022-08-04T08:50:02.765Z,23.97
2022-08-04T08:50:36.321Z,23.61
2022-08-04T08:51:36.343Z,23.60
2022-08-04T08:53:01.298Z,23.75
2022-08-04T08:53:36.388Z,23.83
2022-08-04T08:54:36.407Z,23.63
2022-08-04T08:55:36.432Z,23.87
2022-08-04T08:56:36.453Z,23.97
2022-08-04T08:57:36.471Z,24.37
2022-08-04T08:58:36.497Z,24.62
2022-08-04T08:59:36.518Z,24.52
2022-08-04T09:00:36.537Z,24.69
2022-08-04T09:01:36.793Z,25.03
2022-08-04T09:02:36.585Z,25.14
2022-08-04T09:03:36.614Z,24.81
2022-08-04T09:04:36.625Z,24.60
2022-08-04T09:05:36.648Z,24.42
2022-08-04T09:06:36.695Z,24.58
2022-08-04T09:07:36.693Z,24.80
2022-08-04T09:08:36.716Z,24.98
2022-08-04T09:09:36.739Z,24.88
2022-08-04T09:10:36.760Z,24.78
2022-08-04T09:11:36.782Z,24.37
2022-08-04T09:12:36.806Z,24.10
2022-08-04T09:13:36.826Z,24.08
2022-08-04T09:14:36.850Z,24.08
2022-08-04T09:15:36.869Z,24.21
2022-08-04T09:16:36.891Z,24.35
2022-08-04T09:17:36.912Z,24.55
2022-08-04T09:18:36.939Z,24.46
2022-08-04T09:19:38.955Z,24.43
2022-08-04T09:20:36.977Z,24.31
2022-08-04T09:21:37.004Z,24.39
2022-08-04T09:22:37.026Z,24.55
2022-08-04T09:23:37.049Z,24.62
2022-08-04T09:24:37.295Z,24.84
2022-08-04T09:25:37.095Z,24.90
2022-08-04T09:26:37.112Z,24.53
2022-08-04T09:27:37.139Z,24.34
2022-08-04T09:28:53.679Z,24.46
2022-08-04T09:29:37.283Z,24.34
2022-08-04T09:30:37.204Z,24.45
2022-08-04T09:31:48.960Z,24.60
2022-08-04T09:32:37.249Z,24.76
2022-08-04T09:33:45.673Z,24.96
2022-08-04T09:34:37.307Z,25.38
2022-08-04T09:35:37.372Z,25.72
2022-08-04T09:36:37.348Z,25.90
2022-08-04T09:37:45.799Z,25.95
2022-08-04T09:38:37.390Z,26.09
2022-08-04T09:39:37.610Z,26.12
2022-08-04T09:40:53.565Z,26.35
2022-08-04T09:41:48.525Z,26.30
2022-08-04T09:42:37.580Z,26.35
2022-08-04T09:44:42.836Z,26.39
2022-08-04T09:44:50.860Z,26.35
2022-08-04T09:45:43.272Z,26.52
2022-08-04T09:46:37.573Z,26.63
2022-08-04T09:47:39.472Z,26.20
2022-08-04T09:48:37.620Z,25.94
2022-08-04T09:49:37.645Z,26.23
2022-08-04T09:50:37.671Z,26.57
2022-08-04T09:51:57.300Z,27.02
2022-08-04T09:52:37.712Z,26.60
2022-08-04T09:53:37.754Z,26.66
2022-08-04T09:54:37.764Z,26.77
2022-08-04T09:55:37.789Z,26.72
2022-08-04T09:56:37.803Z,26.76
2022-08-04T09:57:37.826Z,26.77
2022-08-04T09:58:37.855Z,26.76
2022-08-04T09:59:37.876Z,27.06
2022-08-04T10:00:41.386Z,27.41
2022-08-04T10:01:37.921Z,27.19
2022-08-04T10:02:37.983Z,27.75
2022-08-04T10:03:38.061Z,27.65
2022-08-04T10:04:37.995Z,27.17
2022-08-04T10:05:38.026Z,26.77
2022-08-04T10:06:38.043Z,26.39
2022-08-04T10:07:38.069Z,26.50
2022-08-04T10:08:38.098Z,26.84
2022-08-04T10:09:38.112Z,26.26
2022-08-04T10:10:38.138Z,26.39
2022-08-04T10:11:56.068Z,26.66
2022-08-04T10:12:38.193Z,26.76
2022-08-04T10:13:38.212Z,26.50
2022-08-04T10:14:38.232Z,25.75
2022-08-04T10:15:38.258Z,26.30
2022-08-04T10:16:38.292Z,26.76
2022-08-04T10:17:38.305Z,27.09
2022-08-04T10:18:38.328Z,26.97
2022-08-04T10:19:38.353Z,26.99
2022-08-04T10:20:45.728Z,26.70
2022-08-04T10:21:59.272Z,26.44
2022-08-04T10:22:55.481Z,26.39
2022-08-04T10:23:56.567Z,26.50
2022-08-04T10:24:38.477Z,26.80
2022-08-04T10:26:05.315Z,27.34
2022-08-04T10:26:38.525Z,27.18
2022-08-04T10:27:38.547Z,27.12
2022-08-04T10:28:38.572Z,26.75
2022-08-04T10:29:38.593Z,26.63
2022-08-04T10:30:38.619Z,26.67
2022-08-04T10:31:38.644Z,27.02
2022-08-04T10:32:42.839Z,26.76
2022-08-04T10:33:38.694Z,27.09
2022-08-04T10:34:38.719Z,27.62
2022-08-04T10:35:38.756Z,27.19
2022-08-04T10:36:38.770Z,27.27
2022-08-04T10:37:56.502Z,27.31
2022-08-04T10:38:38.813Z,27.22
2022-08-04T10:39:42.898Z,27.24
2022-08-04T10:40:38.867Z,27.17
2022-08-04T10:41:38.890Z,27.81
2022-08-04T10:42:38.912Z,28.02
2022-08-04T10:43:39.041Z,28.44
2022-08-04T10:44:42.214Z,28.17
2022-08-04T10:45:38.986Z,28.44
2022-08-04T10:46:39.110Z,28.03
2022-08-04T10:47:39.037Z,27.70
2022-08-04T10:48:40.237Z,27.84
2022-08-04T10:49:39.089Z,28.22
2022-08-04T10:50:39.112Z,28.39
2022-08-04T10:51:58.404Z,28.44
2022-08-04T10:52:39.158Z,28.59
2022-08-04T10:53:39.193Z,28.48
2022-08-04T10:54:39.210Z,28.18
2022-08-04T10:56:06.503Z,27.21
2022-08-04T10:56:39.265Z,26.72
2022-08-04T10:57:39.289Z,27.59
2022-08-04T10:58:47.522Z,28.06
2022-08-04T10:59:39.350Z,27.93
2022-08-04T11:00:39.366Z,28.03
2022-08-04T11:02:01.397Z,28.18
2022-08-04T11:02:39.480Z,27.72
2022-08-04T11:03:39.450Z,27.13
2022-08-04T11:04:39.466Z,27.87
2022-08-04T11:05:43.970Z,28.02
2022-08-04T11:06:39.516Z,27.84
2022-08-04T11:07:39.541Z,28.02
2022-08-04T11:08:39.565Z,28.34
2022-08-04T11:09:39.598Z,28.56
2022-08-04T11:10:39.618Z,28.54
2022-08-04T11:11:56.990Z,28.25
2022-08-04T11:12:39.673Z,28.89
2022-08-04T11:13:42.817Z,28.96
2022-08-04T11:14:39.721Z,28.46
2022-08-04T11:15:39.744Z,27.72
2022-08-04T11:16:39.779Z,27.66
2022-08-04T11:17:39.801Z,28.18
2022-08-04T11:18:39.827Z,28.88
2022-08-04T11:19:41.549Z,27.97
2022-08-04T11:20:39.875Z,27.63
2022-08-04T11:21:39.904Z,27.99
2022-08-04T11:22:39.927Z,28.30
2022-08-04T11:23:39.950Z,28.64
2022-08-04T11:24:39.977Z,28.21
2022-08-04T11:25:40.006Z,27.60
2022-08-04T11:26:40.031Z,27.72
2022-08-04T11:27:40.055Z,28.86
2022-08-04T11:28:40.079Z,29.06
2022-08-04T11:29:40.107Z,29.39
2022-08-04T11:30:40.127Z,29.15
2022-08-04T11:31:40.188Z,28.30
2022-08-04T11:32:40.185Z,27.29
2022-08-04T11:33:40.208Z,27.22
2022-08-04T11:34:40.241Z,27.10
2022-08-04T11:35:40.263Z,26.85
2022-08-04T11:36:40.288Z,26.73
2022-08-04T11:37:40.414Z,26.81
2022-08-04T11:38:40.341Z,26.94
2022-08-04T11:39:40.406Z,26.45
2022-08-04T11:40:40.387Z,26.48
2022-08-04T11:41:40.411Z,26.63
2022-08-04T11:42:40.441Z,26.63
2022-08-04T11:44:00.761Z,26.28
2022-08-04T11:44:40.542Z,26.20
2022-08-04T11:45:40.516Z,26.48
2022-08-04T11:46:40.544Z,26.77
2022-08-04T11:47:40.570Z,27.02
2022-08-04T11:48:40.596Z,27.29
2022-08-04T11:49:57.540Z,27.18
2022-08-04T11:50:40.646Z,27.25
2022-08-04T11:51:40.679Z,27.34
2022-08-04T11:52:40.699Z,27.50
2022-08-04T11:53:40.731Z,27.72
2022-08-04T11:54:40.750Z,27.29
2022-08-04T11:56:06.908Z,27.14
2022-08-04T11:56:40.816Z,27.19
2022-08-04T11:57:40.855Z,27.27
2022-08-04T11:58:40.845Z,27.75
2022-08-04T11:59:40.921Z,28.15
2022-08-04T12:00:40.958Z,27.84
2022-08-04T12:01:40.999Z,27.36
2022-08-04T12:02:41.110Z,27.60
2022-08-04T12:03:41.038Z,27.60
2022-08-04T12:04:41.090Z,27.46
2022-08-04T12:05:41.099Z,27.39
2022-08-04T12:06:41.139Z,27.37
2022-08-04T12:07:41.969Z,27.41
2022-08-04T12:08:41.172Z,27.70
2022-08-04T12:09:41.206Z,27.96
2022-08-04T12:10:42.618Z,28.03
2022-08-04T12:11:41.257Z,28.07
2022-08-04T12:12:41.278Z,27.97
2022-08-04T12:13:41.237Z,27.50
2022-08-04T12:14:41.361Z,27.17
2022-08-04T12:15:41.295Z,26.80
2022-08-04T12:16:41.357Z,27.07
2022-08-04T12:17:52.645Z,27.41
2022-08-04T12:18:41.385Z,27.28
2022-08-04T12:20:04.579Z,27.34
2022-08-04T12:20:41.626Z,27.74
2022-08-04T12:21:44.209Z,27.92
2022-08-04T12:22:41.666Z,28.49
2022-08-04T12:23:41.500Z,28.59
2022-08-04T12:24:41.523Z,29.08
2022-08-04T12:25:44.863Z,29.95
2022-08-04T12:26:41.569Z,29.19
2022-08-04T12:27:41.608Z,29.21
2022-08-04T12:29:08.469Z,29.04
2022-08-04T12:29:41.651Z,28.66
2022-08-04T12:30:58.844Z,29.12
2022-08-04T12:31:41.702Z,29.41
2022-08-04T12:32:48.281Z,29.36
2022-08-04T12:34:04.898Z,29.11
2022-08-04T12:34:41.778Z,28.74
2022-08-04T12:36:05.263Z,29.06
2022-08-04T12:36:41.830Z,29.31
2022-08-04T12:37:42.015Z,29.05
2022-08-04T12:38:41.962Z,28.88
2022-08-04T12:40:27.869Z,29.23
2022-08-04T12:40:41.939Z,29.60
2022-08-04T12:41:41.964Z,30.01
2022-08-04T12:42:41.992Z,29.90
2022-08-04T12:43:42.016Z,30.22
2022-08-04T12:44:42.057Z,29.83
2022-08-04T12:45:42.086Z,30.31
2022-08-04T12:46:42.111Z,29.63
2022-08-04T12:47:42.585Z,29.30
2022-08-04T12:48:42.196Z,29.12
2022-08-04T12:49:42.239Z,28.70
2022-08-04T12:50:42.239Z,28.52
2022-08-04T12:52:08.438Z,28.77
2022-08-04T12:53:01.056Z,29.00